Time;durP1;ratioP1;P1;durP2;ratioP2;P2;SDS_P1;SDS_P2;PMS_P1;PMS_P2;Temp;Humidity;BMP_temperature;BMP_pressure;BME280_temperature;BME280_humidity;BME280_pressure;Samples;Min_cycle;Max_cycle;Signal;HPM_P1;HPM_P2
2021/07/27 00:01:49;;;;;;;16.23;6.30;;;;;;;26.80;51.43;99959.97;5053860;28;20106;-73
2021/07/27 00:04:18;;;;;;;15.07;6.20;;;;;;;26.69;52.05;99965.19;5052746;28;20461;-73
2021/07/27 00:06:46;;;;;;;13.65;5.72;;;;;;;26.62;52.45;99958.81;5053552;28;20507;-73
2021/07/27 00:09:14;;;;;;;12.77;5.40;;;;;;;26.55;52.76;99953.34;5053234;28;20037;-73
2021/07/27 00:11:43;;;;;;;16.90;6.43;;;;;;;26.47;53.35;99951.63;5053578;28;20056;-73
2021/07/27 00:14:11;;;;;;;16.83;6.47;;;;;;;26.45;53.73;99953.72;5053024;28;20041;-73
2021/07/27 00:16:39;;;;;;;16.13;6.10;;;;;;;26.40;53.59;99949.88;5054087;28;20053;-73
2021/07/27 00:19:10;;;;;;;18.25;6.13;;;;;;;26.31;54.45;99951.06;5053198;28;20053;-74
2021/07/27 00:21:38;;;;;;;16.92;6.47;;;;;;;26.29;54.40;99953.16;5053418;28;20052;-73
2021/07/27 00:24:08;;;;;;;16.27;6.18;;;;;;;26.21;54.72;99949.53;5053262;28;20049;-74
2021/07/27 00:26:36;;;;;;;16.48;6.20;;;;;;;26.16;55.01;99943.84;5053175;28;20052;-73
2021/07/27 00:29:05;;;;;;;17.60;6.32;;;;;;;26.10;55.56;99955.56;5053050;28;20068;-74
2021/07/27 00:31:33;;;;;;;15.68;6.05;;;;;;;26.06;55.29;99951.56;5053393;28;20049;-73
2021/07/27 00:34:02;;;;;;;18.45;6.78;;;;;;;26.02;55.89;99950.25;5053399;28;20092;-73
2021/07/27 00:36:31;;;;;;;14.95;6.70;;;;;;;26.02;56.12;99946.69;5053354;28;20069;-73
2021/07/27 00:38:59;;;;;;;16.55;6.68;;;;;;;26.06;56.15;99943.34;5052941;28;20037;-73
2021/07/27 00:41:28;;;;;;;17.65;6.63;;;;;;;26.06;56.06;99947.97;5052794;28;20080;-74
2021/07/27 00:43:56;;;;;;;16.20;6.95;;;;;;;26.04;56.27;99953.63;5053307;28;20443;-74
2021/07/27 00:46:24;;;;;;;20.30;6.82;;;;;;;26.07;56.15;99947.78;5052623;28;20900;-74
2021/07/27 00:48:53;;;;;;;13.48;6.47;;;;;;;26.02;56.57;99958.44;5053094;28;20443;-73
2021/07/27 00:51:21;;;;;;;16.02;6.55;;;;;;;25.89;57.35;99959.19;5052637;28;20033;-74
2021/07/27 00:53:51;;;;;;;15.55;6.72;;;;;;;25.82;57.74;99957.47;5052834;28;20102;-73
2021/07/27 00:56:22;;;;;;;15.20;6.53;;;;;;;25.78;57.88;99956.19;5052798;28;20045;-74
2021/07/27 00:58:51;;;;;;;14.25;6.85;;;;;;;25.84;57.71;99960.81;5053030;28;20330;-74
2021/07/27 01:01:19;;;;;;;15.13;6.72;;;;;;;25.80;58.37;99967.75;5052422;28;20393;-75
2021/07/27 01:03:48;;;;;;;16.85;6.70;;;;;;;25.74;58.56;99968.53;5051498;28;20099;-75
2021/07/27 01:06:17;;;;;;;17.77;7.03;;;;;;;25.72;58.81;99962.41;5052399;28;20047;-75
2021/07/27 01:08:45;;;;;;;13.38;6.68;;;;;;;25.67;59.15;99966.56;5052720;28;20045;-74
2021/07/27 01:11:24;;;;;;;20.63;7.20;;;;;;;25.63;59.45;99965.25;5052598;28;20053;-74
2021/07/27 01:13:53;;;;;;;18.13;6.95;;;;;;;25.59;59.63;99974.06;5051596;28;20049;-74
2021/07/27 01:16:26;;;;;;;14.70;7.20;;;;;;;25.65;59.45;99984.16;5054306;28;20048;-73
2021/07/27 01:19:02;;;;;;;14.75;6.82;;;;;;;25.56;60.27;99985.34;5056645;28;20052;-74
2021/07/27 01:38:16;;;;;;;21.92;8.77;;;;;;;25.23;61.84;99955.00;5056439;28;20049;-74
2021/07/27 01:40:50;;;;;;;18.58;8.20;;;;;;;25.18;62.39;99949.25;5056632;28;20069;-76
2021/07/27 01:43:19;;;;;;;21.35;8.85;;;;;;;25.13;62.34;99949.84;5056168;28;20495;-74
2021/07/27 01:45:48;;;;;;;20.80;8.55;;;;;;;25.11;62.78;99954.66;5056217;28;20037;-73
2021/07/27 01:48:18;;;;;;;21.67;9.38;;;;;;;25.07;62.73;99937.81;5056009;28;20103;-73
2021/07/27 01:50:47;;;;;;;19.15;8.90;;;;;;;25.06;62.81;99940.75;5056431;28;20052;-73
2021/07/27 01:53:26;;;;;;;21.35;9.00;;;;;;;24.99;63.41;99935.19;5055856;28;20056;-74
2021/07/27 01:55:56;;;;;;;19.33;8.32;;;;;;;24.96;63.37;99941.03;5056356;28;20055;-73
2021/07/27 01:58:24;;;;;;;19.40;8.85;;;;;;;24.98;63.02;99938.94;5055752;28;20098;-73
2021/07/27 02:00:53;;;;;;;19.83;9.02;;;;;;;24.91;63.28;99935.31;5056137;28;20072;-72
2021/07/27 02:03:23;;;;;;;19.58;8.57;;;;;;;24.88;63.44;99938.41;5056097;28;20128;-72
2021/07/27 02:05:51;;;;;;;17.70;8.02;;;;;;;24.92;63.03;99938.91;5056278;28;20484;-72
2021/07/27 02:08:20;;;;;;;21.05;8.35;;;;;;;24.87;63.40;99936.72;5055477;28;20480;-73
2021/07/27 02:10:52;;;;;;;18.52;8.50;;;;;;;24.86;63.22;99940.50;5055833;28;20048;-73
2021/07/27 02:13:27;;;;;;;17.13;7.85;;;;;;;24.89;63.23;99931.06;5055570;28;20115;-73
2021/07/27 02:15:59;;;;;;;18.77;7.47;;;;;;;24.79;63.57;99934.13;5056213;28;20037;-75
2021/07/27 02:18:28;;;;;;;16.33;7.97;;;;;;;24.76;63.72;99940.81;5055438;28;20496;-75
2021/07/27 02:21:01;;;;;;;18.33;7.05;;;;;;;24.83;63.42;99940.91;5055444;28;20076;-75
2021/07/27 02:23:29;;;;;;;17.08;7.35;;;;;;;24.74;63.60;99936.59;5055242;28;20064;-74
2021/07/27 02:25:57;;;;;;;18.75;7.32;;;;;;;24.69;63.71;99936.28;5055749;28;20044;-75
2021/07/27 02:28:27;;;;;;;20.08;7.43;;;;;;;24.65;63.86;99945.91;5054581;28;20440;-75
2021/07/27 02:30:56;;;;;;;17.00;7.13;;;;;;;24.63;63.79;99953.44;5055893;28;20056;-75
2021/07/27 02:33:24;;;;;;;18.38;7.93;;;;;;;24.59;64.37;99949.38;5055168;28;20052;-73
2021/07/27 02:35:53;;;;;;;19.30;7.47;;;;;;;24.55;64.68;99954.38;5055352;28;20045;-74
2021/07/27 02:38:21;;;;;;;18.33;7.40;;;;;;;24.53;64.77;99960.03;5055302;28;20506;-74
2021/07/27 02:40:50;;;;;;;22.50;8.10;;;;;;;24.50;65.08;99965.84;5055356;28;20053;-74
2021/07/27 02:43:18;;;;;;;18.63;6.95;;;;;;;24.49;64.81;99966.88;5055038;28;20094;-74
2021/07/27 02:45:48;;;;;;;16.92;7.57;;;;;;;24.50;65.28;99974.03;5055061;28;20056;-74
2021/07/27 02:48:16;;;;;;;21.40;7.63;;;;;;;24.45;65.49;99962.84;5054891;28;20041;-74
2021/07/27 02:51:01;;;;;;;19.33;7.80;;;;;;;24.42;66.03;99973.31;5055226;28;20044;-74
2021/07/27 02:53:30;;;;;;;19.40;7.60;;;;;;;24.32;66.39;99967.25;5054821;28;20094;-75
2021/07/27 02:56:00;;;;;;;21.70;7.78;;;;;;;24.32;65.91;99967.25;5055264;28;20136;-75
2021/07/27 02:58:44;;;;;;;15.75;7.70;;;;;;;24.42;65.43;99960.50;5053635;28;20612;-75
2021/07/27 03:01:16;;;;;;;19.65;7.82;;;;;;;24.46;64.90;99975.44;5054731;28;20037;-75
2021/07/27 03:03:47;;;;;;;17.95;7.40;;;;;;;24.41;65.63;99979.75;5055457;28;20052;-75
2021/07/27 03:06:16;;;;;;;17.13;7.78;;;;;;;24.40;65.34;99978.91;5054714;28;20175;-75
2021/07/27 03:09:02;;;;;;;19.23;8.02;;;;;;;24.40;65.69;99973.47;5054831;28;20119;-75
2021/07/27 03:11:31;;;;;;;18.23;8.10;;;;;;;24.39;65.59;99974.50;5054832;28;20056;-75
2021/07/27 03:13:59;;;;;;;19.95;7.82;;;;;;;24.44;65.35;99969.34;5054618;28;20045;-75
2021/07/27 03:16:32;;;;;;;18.27;7.45;;;;;;;24.49;65.02;99979.66;5054816;28;20077;-74
2021/07/27 03:19:00;;;;;;;18.20;7.57;;;;;;;24.41;65.88;99975.16;5054940;28;20047;-74
2021/07/27 03:21:28;;;;;;;17.63;8.38;;;;;;;24.35;65.84;99981.38;5054448;28;20049;-74
2021/07/27 03:23:56;;;;;;;19.65;7.97;;;;;;;24.30;66.11;99991.09;5054421;28;20099;-74
2021/07/27 03:26:25;;;;;;;20.05;7.90;;;;;;;24.30;66.23;99994.66;5054120;28;20048;-74
2021/07/27 03:28:54;;;;;;;17.48;8.13;;;;;;;24.37;66.13;100003.84;5054599;28;20048;-73
2021/07/27 03:31:24;;;;;;;18.02;8.30;;;;;;;24.34;66.48;99990.59;5053920;28;20064;-73
2021/07/27 03:33:54;;;;;;;17.10;8.77;;;;;;;24.25;66.92;99994.41;5054622;28;20049;-73
2021/07/27 03:36:22;;;;;;;16.05;8.18;;;;;;;24.35;66.45;100003.19;5053989;28;20123;-74
2021/07/27 03:38:51;;;;;;;20.67;8.82;;;;;;;24.31;66.94;99996.41;5054394;28;20045;-73
2021/07/27 03:41:19;;;;;;;18.88;8.13;;;;;;;24.31;66.95;100000.97;5054014;28;20086;-75
2021/07/27 03:43:47;;;;;;;21.42;8.07;;;;;;;24.42;66.50;100009.59;5054296;28;20399;-75
2021/07/27 03:46:16;;;;;;;23.75;8.40;;;;;;;24.45;66.96;100005.63;5053813;28;20052;-76
2021/07/27 03:48:44;;;;;;;18.08;8.25;;;;;;;24.57;65.53;100020.47;5054037;28;20495;-73
2021/07/27 03:51:15;;;;;;;15.85;7.75;;;;;;;24.66;65.15;100015.78;5054207;28;20045;-74
2021/07/27 03:53:43;;;;;;;18.75;7.70;;;;;;;24.84;63.89;100019.78;5054219;28;20041;-74
2021/07/27 03:56:13;;;;;;;18.63;7.13;;;;;;;25.30;61.07;100013.25;5054201;28;20045;-73
2021/07/27 03:58:43;;;;;;;15.68;6.80;;;;;;;25.35;59.86;100016.22;5053674;28;20049;-73
2021/07/27 04:01:11;;;;;;;17.05;6.55;;;;;;;25.83;57.38;100008.31;5053681;28;20052;-73
2021/07/27 04:03:40;;;;;;;12.90;5.57;;;;;;;26.13;56.43;100012.56;5053341;28;20381;-74
2021/07/27 04:06:08;;;;;;;14.75;6.28;;;;;;;26.60;53.83;100008.28;5053852;28;20119;-77
2021/07/27 04:08:38;;;;;;;13.38;5.25;;;;;;;27.18;51.53;100016.13;5053334;28;20045;-73
2021/07/27 04:11:06;;;;;;;13.52;6.43;;;;;;;27.69;50.81;100016.47;5053700;28;20094;-76
2021/07/27 04:13:35;;;;;;;15.50;6.25;;;;;;;28.31;50.02;100009.75;5053256;28;20076;-75
2021/07/27 04:16:04;;;;;;;19.55;7.47;;;;;;;28.69;49.14;100000.81;5054069;28;20123;-73
2021/07/27 04:18:32;;;;;;;14.57;6.15;;;;;;;28.86;47.80;99996.53;5053388;28;20048;-73
2021/07/27 04:21:01;;;;;;;14.20;6.18;;;;;;;29.14;47.66;100003.59;5053311;28;20136;-73
2021/07/27 04:23:31;;;;;;;12.68;6.13;;;;;;;29.33;47.64;100008.13;5051969;28;20403;-73
2021/07/27 04:26:00;;;;;;;17.58;6.00;;;;;;;29.39;46.88;100021.00;5053112;28;20076;-77
2021/07/27 04:28:28;;;;;;;18.25;6.75;;;;;;;29.61;47.28;100019.59;5052869;28;20048;-81
2021/07/27 04:30:58;;;;;;;15.50;6.10;;;;;;;29.71;46.30;100021.03;5052929;28;20052;-79
2021/07/27 04:33:36;;;;;;;17.00;6.75;;;;;;;29.83;47.09;100022.00;5052896;28;20144;-79
2021/07/27 04:36:05;;;;;;;17.17;6.50;;;;;;;29.92;45.64;100023.41;5053116;28;20041;-80
2021/07/27 04:38:33;;;;;;;14.00;6.20;;;;;;;30.16;45.97;100022.59;5052642;28;20045;-79
2021/07/27 04:41:07;;;;;;;14.43;5.70;;;;;;;30.38;44.06;100024.91;5052844;28;20484;-77
2021/07/27 04:43:36;;;;;;;16.77;6.13;;;;;;;30.57;44.91;100034.88;5052647;28;20045;-74
2021/07/27 04:46:05;;;;;;;12.57;6.30;;;;;;;30.57;42.66;100031.28;5053041;28;20449;-76
2021/07/27 04:48:37;;;;;;;18.50;5.90;;;;;;;30.72;42.96;100029.88;5052576;28;20055;-81
2021/07/27 04:51:05;;;;;;;14.45;5.93;;;;;;;30.65;41.98;100029.13;5052425;28;20051;-77
2021/07/27 04:53:36;;;;;;;15.13;5.70;;;;;;;30.82;41.84;100028.50;5052565;28;20045;-78
2021/07/27 04:56:06;;;;;;;13.18;5.30;;;;;;;30.91;41.26;100021.63;5053245;28;20099;-75
2021/07/27 04:58:47;;;;;;;9.32;5.07;;;;;;;30.97;40.78;100023.44;5053111;28;20480;-75
2021/07/27 05:01:18;;;;;;;11.25;5.43;;;;;;;31.13;41.08;100024.72;5052920;28;20065;-75
2021/07/27 05:03:47;;;;;;;15.02;5.80;;;;;;;31.06;40.39;100022.91;5052758;28;20049;-77
2021/07/27 05:06:15;;;;;;;13.07;5.30;;;;;;;31.18;40.21;100025.72;5052943;28;20069;-77
2021/07/27 05:08:44;;;;;;;12.10;5.20;;;;;;;31.14;39.83;100021.75;5052497;28;20069;-77
2021/07/27 05:11:13;;;;;;;10.30;4.72;;;;;;;31.47;39.71;100026.00;5052877;28;20049;-79
2021/07/27 05:13:42;;;;;;;8.68;5.30;;;;;;;31.52;39.70;100031.63;5052516;28;20118;-76
2021/07/27 05:16:14;;;;;;;10.13;5.25;;;;;;;31.90;39.03;100034.88;5053005;28;20472;-76
2021/07/27 05:18:43;;;;;;;11.25;5.13;;;;;;;32.06;38.85;100038.03;5052322;28;20037;-75
2021/07/27 05:21:11;;;;;;;15.02;5.20;;;;;;;32.16;38.54;100036.38;5052549;28;20098;-72
2021/07/27 05:23:40;;;;;;;12.85;5.25;;;;;;;31.83;38.57;100036.91;5052262;28;20096;-74
2021/07/27 05:26:08;;;;;;;14.80;5.20;;;;;;;31.70;38.70;100052.78;5052734;28;20045;-74
2021/07/27 05:28:37;;;;;;;12.75;4.85;;;;;;;32.06;38.61;100057.34;5052369;28;20061;-75
2021/07/27 05:31:06;;;;;;;10.23;4.63;;;;;;;31.76;38.35;100055.50;5052433;28;20484;-76
2021/07/27 05:33:34;;;;;;;11.13;5.03;;;;;;;31.82;38.78;100059.22;5052578;28;20515;-76
2021/07/27 05:36:02;;;;;;;10.65;4.70;;;;;;;31.83;38.38;100061.72;5052464;28;20069;-75
2021/07/27 05:38:31;;;;;;;11.05;4.55;;;;;;;32.10;38.20;100056.63;5052361;28;20396;-75
2021/07/27 05:40:59;;;;;;;10.45;4.68;;;;;;;31.67;38.28;100059.63;5052627;28;20041;-74
2021/07/27 05:43:27;;;;;;;9.52;4.70;;;;;;;31.02;39.63;100056.66;5051994;28;20083;-76
2021/07/27 05:45:57;;;;;;;11.40;4.95;;;;;;;31.14;39.75;100049.28;5052497;28;20048;-76
2021/07/27 05:48:26;;;;;;;9.93;4.50;;;;;;;30.86;40.42;100052.59;5052278;28;20536;-76
2021/07/27 05:50:54;;;;;;;13.73;4.80;;;;;;;30.64;40.72;100054.09;5052412;28;20110;-76
2021/07/27 05:53:22;;;;;;;10.77;4.57;;;;;;;29.57;43.44;100059.59;5052313;28;20542;-76
2021/07/27 05:55:51;;;;;;;11.98;4.80;;;;;;;30.18;42.16;100056.22;5052463;28;20052;-76
2021/07/27 05:58:19;;;;;;;12.13;5.15;;;;;;;31.05;40.68;100068.03;5052161;28;20048;-76
2021/07/27 06:00:47;;;;;;;10.63;4.75;;;;;;;31.24;40.48;100074.41;5052349;28;20049;-76
2021/07/27 06:03:17;;;;;;;8.90;4.97;;;;;;;31.62;39.21;100073.25;5053698;28;20079;-76
2021/07/27 06:05:45;;;;;;;8.52;4.85;;;;;;;32.00;38.57;100069.31;5055818;28;20077;-76
2021/07/27 06:08:13;;;;;;;10.05;4.60;;;;;;;31.97;38.56;100080.84;5055831;28;20049;-76
2021/07/27 06:10:41;;;;;;;9.13;4.70;;;;;;;31.66;39.04;100066.22;5055544;28;20537;-75
2021/07/27 06:13:10;;;;;;;8.32;4.85;;;;;;;32.42;37.67;100076.47;5055975;28;20073;-75
2021/07/27 06:15:38;;;;;;;9.18;5.05;;;;;;;32.51;37.37;100071.44;5055323;28;20439;-77
2021/07/27 06:18:06;;;;;;;9.55;4.57;;;;;;;32.34;37.44;100076.84;5055708;28;20044;-77
2021/07/27 06:20:35;;;;;;;7.97;4.45;;;;;;;32.04;37.75;100089.84;5055706;28;20053;-80
2021/07/27 06:23:04;;;;;;;10.35;4.53;;;;;;;32.33;37.61;100086.22;5055701;28;20132;-75
2021/07/27 06:25:32;;;;;;;7.93;4.43;;;;;;;32.54;37.36;100092.22;5055515;28;20048;-76
2021/07/27 06:28:00;;;;;;;9.40;4.70;;;;;;;32.44;36.96;100093.66;5055734;28;20037;-75
2021/07/27 06:30:30;;;;;;;8.95;4.65;;;;;;;32.70;36.92;100097.00;5055330;28;20059;-78
2021/07/27 06:32:59;;;;;;;7.43;4.07;;;;;;;32.23;36.86;100096.09;5055689;28;20487;-76
2021/07/27 06:35:27;;;;;;;8.02;3.75;;;;;;;31.74;37.62;100092.59;5055081;28;20047;-76
2021/07/27 06:37:57;;;;;;;8.20;4.35;;;;;;;32.32;37.22;100090.03;5055562;28;20123;-74
2021/07/27 06:40:25;;;;;;;8.30;3.78;;;;;;;32.31;36.13;100085.59;5055226;28;20045;-74
2021/07/27 06:42:53;;;;;;;9.38;4.38;;;;;;;32.88;34.96;100085.84;5055270;28;20068;-78
2021/07/27 06:45:21;;;;;;;10.55;3.90;;;;;;;33.17;34.82;100089.53;5055731;28;20045;-77
2021/07/27 06:47:49;;;;;;;7.28;4.10;;;;;;;33.22;34.46;100086.88;5055384;28;20037;-79
2021/07/27 06:50:18;;;;;;;6.78;3.95;;;;;;;33.53;33.96;100093.88;5055918;28;20036;-79
2021/07/27 06:52:46;;;;;;;9.75;4.40;;;;;;;33.38;34.49;100088.03;5055188;28;20106;-80
2021/07/27 06:55:19;;;;;;;8.20;4.00;;;;;;;33.43;33.49;100090.91;5053918;28;20049;-77
2021/07/27 06:57:51;;;;;;;9.43;4.00;;;;;;;33.82;33.71;100100.25;5055051;28;20402;-78
2021/07/27 07:00:20;;;;;;;9.70;4.45;;;;;;;33.24;35.26;100108.75;5055328;28;20055;-77
2021/07/27 07:02:48;;;;;;;7.30;3.53;;;;;;;32.97;33.42;100103.72;5054493;28;20554;-74
2021/07/27 07:05:17;;;;;;;6.30;3.40;;;;;;;32.90;34.11;100096.66;5055316;28;20041;-75
2021/07/27 07:07:45;;;;;;;6.25;3.22;;;;;;;32.19;34.21;100095.75;5054689;28;20488;-73
2021/07/27 07:10:14;;;;;;;8.15;3.40;;;;;;;32.21;34.51;100104.63;5055094;28;20041;-74
2021/07/27 07:12:42;;;;;;;5.75;3.13;;;;;;;32.03;35.10;100101.94;5054143;28;20451;-76
2021/07/27 07:15:11;;;;;;;5.82;3.20;;;;;;;32.42;34.88;100101.31;5053804;28;20041;-76
2021/07/27 07:17:40;;;;;;;6.53;3.30;;;;;;;32.14;35.18;100109.44;5054512;28;20061;-76
2021/07/27 07:20:09;;;;;;;9.93;3.47;;;;;;;32.04;34.76;100112.78;5054602;28;20095;-76
2021/07/27 07:22:37;;;;;;;6.28;3.50;;;;;;;32.13;34.13;100107.72;5054587;28;20051;-76
2021/07/27 07:25:07;;;;;;;7.60;3.45;;;;;;;31.71;36.36;100110.44;5055016;28;20091;-76
2021/07/27 07:27:37;;;;;;;8.98;3.38;;;;;;;31.14;36.57;100114.56;5054194;28;20462;-75
2021/07/27 07:30:07;;;;;;;8.32;3.45;;;;;;;31.13;36.57;100108.22;5054803;28;20041;-76
2021/07/27 07:32:35;;;;;;;8.60;3.20;;;;;;;31.13;37.40;100123.91;5054187;28;20443;-76
2021/07/27 07:35:04;;;;;;;7.15;3.40;;;;;;;31.04;37.97;100123.34;5054472;28;20052;-76
2021/07/27 07:37:32;;;;;;;8.10;3.85;;;;;;;30.69;38.14;100121.19;5054016;28;20434;-76
2021/07/27 07:40:00;;;;;;;7.38;3.65;;;;;;;30.77;38.83;100115.38;5054114;28;20121;-76
2021/07/27 07:42:29;;;;;;;8.00;3.50;;;;;;;30.91;38.34;100116.09;5054734;28;20068;-76
2021/07/27 07:44:58;;;;;;;6.53;3.50;;;;;;;31.18;38.04;100126.81;5054398;28;20045;-75
2021/07/27 07:47:26;;;;;;;7.50;3.63;;;;;;;31.28;37.17;100122.47;5054212;28;20045;-75
2021/07/27 07:49:58;;;;;;;6.97;3.55;;;;;;;31.55;36.40;100133.97;5053763;28;20040;-75
2021/07/27 07:52:26;;;;;;;6.53;3.00;;;;;;;31.25;36.09;100133.94;5054100;28;20128;-76
2021/07/27 07:54:54;;;;;;;6.28;2.80;;;;;;;31.02;34.98;100139.28;5054133;28;20072;-76
2021/07/27 07:57:23;;;;;;;7.68;2.95;;;;;;;30.59;36.36;100144.75;5054166;28;20102;-76
2021/07/27 07:59:52;;;;;;;3.95;2.40;;;;;;;30.49;36.43;100146.09;5053907;28;20044;-77
2021/07/27 08:02:21;;;;;;;4.13;2.60;;;;;;;30.47;36.69;100152.91;5054013;28;20129;-76
2021/07/27 08:04:50;;;;;;;4.97;2.63;;;;;;;30.47;36.91;100152.91;5053753;28;20041;-76
2021/07/27 08:07:18;;;;;;;6.22;2.78;;;;;;;30.16;37.17;100157.38;5053820;28;20041;-76
2021/07/27 08:09:47;;;;;;;4.65;2.45;;;;;;;30.29;37.82;100166.59;5053747;28;20063;-76
2021/07/27 08:12:15;;;;;;;6.28;2.88;;;;;;;30.47;38.05;100158.41;5053941;28;20463;-76
2021/07/27 08:14:44;;;;;;;6.22;2.60;;;;;;;30.44;38.26;100158.84;5053376;28;20045;-76
2021/07/27 08:17:13;;;;;;;4.75;2.60;;;;;;;30.60;37.88;100162.97;5053403;28;20067;-76
2021/07/27 08:19:43;;;;;;;9.38;2.80;;;;;;;30.68;37.89;100168.19;5053053;28;20484;-77
2021/07/27 08:22:11;;;;;;;4.10;2.45;;;;;;;30.73;36.71;100171.13;5053872;28;20045;-76
2021/07/27 08:24:39;;;;;;;5.38;2.70;;;;;;;30.45;37.96;100172.38;5053293;28;20098;-77
2021/07/27 08:27:09;;;;;;;4.95;2.58;;;;;;;30.38;37.44;100171.59;5053116;28;20048;-76
2021/07/27 08:29:38;;;;;;;5.13;2.40;;;;;;;30.17;37.79;100175.56;5053032;28;20496;-76
2021/07/27 08:32:08;;;;;;;6.38;2.70;;;;;;;30.16;38.49;100168.38;5053366;28;20037;-76
2021/07/27 08:34:37;;;;;;;5.18;2.75;;;;;;;30.57;39.05;100169.75;5053569;28;20051;-76
2021/07/27 08:37:06;;;;;;;5.15;2.50;;;;;;;30.64;37.60;100173.31;5053587;28;20045;-76
2021/07/27 08:39:37;;;;;;;4.57;2.33;;;;;;;30.62;37.90;100172.69;5053149;28;20040;-77
2021/07/27 08:42:07;;;;;;;4.43;2.67;;;;;;;30.58;37.82;100168.66;5053197;28;20286;-76
2021/07/27 08:44:37;;;;;;;6.20;2.47;;;;;;;30.84;38.20;100164.03;5052863;28;20045;-77
2021/07/27 08:47:07;;;;;;;4.40;2.30;;;;;;;30.72;38.42;100172.19;5053518;28;20037;-76
2021/07/27 08:49:38;;;;;;;6.00;2.50;;;;;;;30.84;38.06;100175.88;5053212;28;20053;-77
2021/07/27 08:52:07;;;;;;;4.53;2.30;;;;;;;30.75;38.08;100178.09;5053438;28;20069;-76
2021/07/27 08:54:38;;;;;;;6.50;2.72;;;;;;;30.36;38.16;100176.47;5052066;28;20049;-76
2021/07/27 08:57:13;;;;;;;3.95;2.50;;;;;;;30.53;38.77;100184.19;5053090;28;20128;-76
2021/07/27 08:59:42;;;;;;;5.70;2.70;;;;;;;30.30;38.46;100180.09;5052832;28;20123;-77
2021/07/27 09:02:11;;;;;;;5.07;2.55;;;;;;;30.34;38.09;100180.53;5053033;28;20094;-76
2021/07/27 09:04:39;;;;;;;4.78;2.60;;;;;;;30.53;37.67;100176.78;5052630;28;20127;-75
2021/07/27 09:07:09;;;;;;;4.18;2.28;;;;;;;30.39;37.07;100172.44;5052889;28;20041;-75
2021/07/27 09:09:37;;;;;;;4.68;2.47;;;;;;;30.14;37.83;100175.16;5052720;28;20045;-74
2021/07/27 09:12:09;;;;;;;5.28;2.85;;;;;;;30.26;37.07;100180.78;5053093;28;20049;-75
2021/07/27 09:14:43;;;;;;;5.13;2.45;;;;;;;30.44;38.13;100180.88;5053069;28;20132;-75
2021/07/27 09:17:11;;;;;;;4.75;2.60;;;;;;;30.53;37.57;100185.03;5052942;28;20049;-75
2021/07/27 09:19:40;;;;;;;4.25;2.60;;;;;;;30.65;36.77;100177.75;5052616;28;20120;-76
2021/07/27 09:22:10;;;;;;;6.15;2.60;;;;;;;30.72;37.34;100178.53;5052803;28;20045;-75
2021/07/27 09:24:38;;;;;;;5.38;2.55;;;;;;;30.86;37.22;100181.16;5052719;28;20111;-75
2021/07/27 09:27:08;;;;;;;5.15;2.47;;;;;;;31.00;37.71;100169.81;5052805;28;20057;-76
2021/07/27 09:29:43;;;;;;;4.97;2.35;;;;;;;31.06;36.86;100173.53;5052527;28;20467;-75
2021/07/27 09:32:17;;;;;;;5.78;2.60;;;;;;;30.70;36.79;100175.19;5052820;28;20116;-75
2021/07/27 09:34:46;;;;;;;5.97;3.08;;;;;;;30.82;36.92;100166.19;5052652;28;20040;-75
2021/07/27 09:37:26;;;;;;;5.57;2.60;;;;;;;31.01;37.03;100170.66;5054502;28;20079;-75
2021/07/27 09:40:06;;;;;;;5.18;2.60;;;;;;;30.90;36.73;100177.75;5056657;28;20052;-77
2021/07/27 09:42:36;;;;;;;5.68;2.72;;;;;;;30.86;36.69;100176.50;5056632;28;20041;-77
2021/07/27 09:45:06;;;;;;;5.30;3.00;;;;;;;30.97;36.76;100180.41;5056173;28;20040;-76
2021/07/27 09:47:38;;;;;;;5.00;2.90;;;;;;;31.00;36.83;100188.25;5056572;28;20458;-76
2021/07/27 09:50:08;;;;;;;6.05;2.97;;;;;;;30.82;36.74;100179.94;5056768;28;20150;-76
2021/07/27 09:52:40;;;;;;;6.13;3.00;;;;;;;30.82;37.05;100185.44;5056154;28;20072;-76
2021/07/27 09:55:08;;;;;;;6.57;2.92;;;;;;;30.83;36.15;100184.38;5056444;28;20037;-76
2021/07/27 09:57:40;;;;;;;5.35;3.17;;;;;;;30.99;36.07;100189.31;5056342;28;20488;-76
2021/07/27 10:00:12;;;;;;;7.47;3.20;;;;;;;31.16;36.00;100192.31;5056528;28;20438;-75
2021/07/27 10:02:42;;;;;;;6.60;3.30;;;;;;;31.11;36.70;100206.78;5056130;28;20049;-75
2021/07/27 10:05:13;;;;;;;7.53;2.83;;;;;;;31.12;36.58;100207.63;5054779;28;20079;-77
2021/07/27 10:07:54;;;;;;;6.15;3.10;;;;;;;31.13;36.66;100201.88;5056036;28;20136;-77
2021/07/27 10:10:35;;;;;;;5.13;2.80;;;;;;;31.29;35.66;100212.34;5056202;28;20462;-75
2021/07/27 10:13:11;;;;;;;7.78;3.10;;;;;;;31.09;36.11;100211.69;5055807;28;20124;-75
2021/07/27 10:15:41;;;;;;;8.15;3.15;;;;;;;31.19;35.69;100212.00;5056381;28;20047;-77
2021/07/27 10:18:12;;;;;;;;;;;;;;;31.29;36.31;100215.09;5056452;28;20048;-77
2021/07/27 10:20:41;;;;;;;7.05;3.17;;;;;;;31.14;35.89;100217.31;5055778;28;20299;-76
2021/07/27 10:23:16;;;;;;;6.55;2.53;;;;;;;31.06;36.17;100201.09;5056036;28;20502;-76
2021/07/27 10:25:54;;;;;;;7.68;2.97;;;;;;;31.03;36.94;100215.31;5055546;28;20037;-77
2021/07/27 10:28:24;;;;;;;6.20;2.80;;;;;;;31.03;36.46;100209.81;5055855;28;20549;-76
2021/07/27 10:31:07;;;;;;;8.63;2.85;;;;;;;31.03;36.69;100207.06;5055324;28;20067;-77
2021/07/27 10:33:37;;;;;;;5.95;2.67;;;;;;;31.24;36.61;100209.41;5055819;28;20083;-77
2021/07/27 10:36:05;;;;;;;7.50;2.90;;;;;;;31.46;35.82;100207.06;5055353;28;20124;-77
2021/07/27 10:38:44;;;;;;;5.63;2.63;;;;;;;31.32;35.95;100205.50;5055565;28;20037;-78
2021/07/27 10:41:17;;;;;;;6.95;3.33;;;;;;;31.31;35.47;100215.69;5055543;28;20045;-78
2021/07/27 10:43:46;;;;;;;7.47;3.00;;;;;;;31.30;34.94;100203.00;5055226;28;20384;-78
2021/07/27 10:46:14;;;;;;;4.85;2.65;;;;;;;31.41;34.61;100204.16;5055236;28;20048;-76
2021/07/27 10:48:43;;;;;;;6.90;3.20;;;;;;;31.52;35.29;100210.81;5054477;28;20099;-76
2021/07/27 10:51:11;;;;;;;6.72;3.10;;;;;;;31.63;34.65;100202.59;5055106;28;20458;-77
2021/07/27 10:53:44;;;;;;;7.15;2.90;;;;;;;31.63;35.02;100210.03;5055141;28;20102;-77
2021/07/27 10:56:12;;;;;;;6.07;2.72;;;;;;;31.68;34.57;100196.41;5054247;28;20147;-77
2021/07/27 10:58:45;;;;;;;5.57;2.88;;;;;;;31.80;34.23;100202.00;5055345;28;20128;-77
2021/07/27 11:01:13;;;;;;;9.25;3.40;;;;;;;31.79;34.11;100192.88;5055339;28;20124;-76
2021/07/27 11:03:42;;;;;;;6.32;3.25;;;;;;;31.66;34.34;100189.44;5055038;28;20067;-79
2021/07/27 11:06:10;;;;;;;6.80;2.88;;;;;;;31.60;34.20;100185.69;5054748;28;20550;-76
2021/07/27 11:08:39;;;;;;;6.65;2.70;;;;;;;31.63;34.99;100185.22;5054926;28;20398;-77
2021/07/27 11:11:13;;;;;;;9.70;3.30;;;;;;;31.74;34.14;100187.19;5055118;28;20045;-79
2021/07/27 11:13:52;;;;;;;8.35;3.08;;;;;;;31.69;34.37;100184.28;5055098;28;20049;-79
2021/07/27 11:16:23;;;;;;;11.15;3.67;;;;;;;31.79;34.78;100173.59;5054772;28;20080;-79
2021/07/27 11:18:51;;;;;;;6.68;3.50;;;;;;;31.95;34.23;100182.28;5054389;28;20106;-76
2021/07/27 11:21:20;;;;;;;9.20;3.40;;;;;;;31.96;33.89;100175.69;5054664;28;20053;-76
2021/07/27 11:23:49;;;;;;;6.75;3.20;;;;;;;32.16;33.60;100179.84;5054595;28;20076;-76
2021/07/27 11:26:18;;;;;;;9.77;3.20;;;;;;;32.28;33.63;100190.06;5054620;28;20124;-76
2021/07/27 11:28:46;;;;;;;9.02;3.33;;;;;;;32.19;34.08;100178.53;5054682;28;20069;-77
2021/07/27 11:31:18;;;;;;;9.25;3.92;;;;;;;32.18;34.38;100179.59;5054730;28;20045;-77
2021/07/27 11:33:50;;;;;;;8.02;3.20;;;;;;;32.33;33.58;100190.22;5054856;28;20041;-77
2021/07/27 11:36:22;;;;;;;8.45;3.25;;;;;;;32.18;34.14;100180.44;5054363;28;20071;-77
2021/07/27 11:38:50;;;;;;;8.88;3.40;;;;;;;32.29;34.33;100189.00;5054314;28;20037;-77
2021/07/27 11:41:21;;;;;;;6.82;3.30;;;;;;;32.55;34.32;100185.00;5054400;28;20041;-77
2021/07/27 11:43:57;;;;;;;9.75;3.60;;;;;;;32.71;34.03;100178.75;5054170;28;20073;-77
2021/07/27 11:46:31;;;;;;;7.03;3.17;;;;;;;32.74;33.39;100175.53;5054119;28;20045;-77
2021/07/27 11:49:00;;;;;;;7.07;3.00;;;;;;;32.87;33.27;100172.56;5054123;28;20051;-77
2021/07/27 11:51:31;;;;;;;5.03;3.15;;;;;;;32.92;33.35;100166.34;5054276;28;20112;-77
2021/07/27 11:53:59;;;;;;;7.90;3.20;;;;;;;32.94;33.25;100167.78;5054067;28;20052;-77